createdAt,value
2018-09-14T00:01:29.117Z,98852.33
2018-09-14T00:03:57.821Z,98856.56
2018-09-14T00:06:26.285Z,98857.40
2018-09-14T00:08:55.058Z,98856.56
2018-09-14T00:11:23.553Z,98856.56
2018-09-14T00:13:52.094Z,98845.05
2018-09-14T00:16:20.590Z,98849.29
2018-09-14T00:18:49.018Z,98851.16
2018-09-14T00:21:17.473Z,98853.16
2018-09-14T00:23:45.981Z,98847.76
2018-09-14T00:26:15.265Z,98844.70
2018-09-14T00:28:43.790Z,98844.84
2018-09-14T00:31:12.226Z,98840.28
2018-09-14T00:33:40.780Z,98850.73
2018-09-14T00:36:09.498Z,98848.56
2018-09-14T00:38:38.001Z,98847.03
2018-09-14T00:41:06.496Z,98836.73
2018-09-14T00:43:34.997Z,98845.17
2018-09-14T00:46:03.465Z,98837.91
2018-09-14T00:48:31.970Z,98844.34
2018-09-14T00:51:00.423Z,98845.00
2018-09-14T00:53:28.966Z,98837.91
2018-09-14T00:55:57.718Z,98838.93
2018-09-14T00:58:26.189Z,98845.69
2018-09-14T01:00:55.896Z,98838.57
2018-09-14T01:03:24.393Z,98837.28
2018-09-14T01:05:52.869Z,98838.27
2018-09-14T01:08:21.449Z,98834.03
2018-09-14T01:10:49.929Z,98830.16
2018-09-14T01:13:18.385Z,98831.69
2018-09-14T01:15:46.897Z,98835.92
2018-09-14T01:18:15.345Z,98838.62
2018-09-14T01:20:43.845Z,98833.22
2018-09-14T01:23:12.318Z,98836.44
2018-09-14T01:25:40.826Z,98835.74
2018-09-14T01:28:09.278Z,98833.55
2018-09-14T01:30:37.785Z,98834.25
2018-09-14T01:33:06.405Z,98834.57
2018-09-14T01:35:40.011Z,98837.61
2018-09-14T01:38:08.541Z,98837.94
2018-09-14T01:40:38.227Z,98837.97
2018-09-14T01:43:06.766Z,98834.23
2018-09-14T01:45:35.238Z,98840.67
2018-09-14T01:48:03.702Z,98843.55
2018-09-14T01:50:32.189Z,98839.98
2018-09-14T01:53:00.654Z,98845.56
2018-09-14T01:55:29.145Z,98843.02
2018-09-14T01:57:57.845Z,98841.33
2018-09-14T02:00:26.331Z,98842.84
2018-09-14T02:02:56.602Z,98848.56
2018-09-14T02:05:25.133Z,98853.80
2018-09-14T02:07:53.605Z,98850.43
2018-09-14T02:10:22.988Z,98846.86
2018-09-14T02:12:52.577Z,98846.70
2018-09-14T02:15:21.310Z,98847.40
2018-09-14T02:17:49.745Z,98843.52
2018-09-14T02:20:19.571Z,98843.34
2018-09-14T02:22:48.577Z,98839.44
2018-09-14T02:25:17.066Z,98842.98
2018-09-14T02:27:45.545Z,98833.02
2018-09-14T02:30:14.098Z,98837.22
2018-09-14T02:32:42.514Z,98833.02
2018-09-14T02:35:10.993Z,98838.93
2018-09-14T02:37:39.480Z,98833.05
2018-09-14T02:40:07.969Z,98834.36
2018-09-14T02:42:36.450Z,98830.82
2018-09-14T02:45:05.630Z,98829.47
2018-09-14T02:47:34.125Z,98828.99
2018-09-14T02:50:02.656Z,98822.72
2018-09-14T02:52:31.101Z,98835.90
2018-09-14T02:54:59.597Z,98829.47
2018-09-14T02:57:28.098Z,98825.75
2018-09-14T02:59:57.059Z,98824.40
2018-09-14T03:02:25.533Z,98822.69
2018-09-14T03:04:54.052Z,98831.16
2018-09-14T03:07:22.585Z,98830.16
2018-09-14T03:09:51.154Z,98833.70
2018-09-14T03:12:19.676Z,98832.53
2018-09-14T03:14:48.117Z,98829.29
2018-09-14T03:17:16.622Z,98831.33
2018-09-14T03:19:45.166Z,98833.86
2018-09-14T03:22:13.690Z,98833.53
2018-09-14T03:24:42.158Z,98829.47
2018-09-14T03:27:10.650Z,98823.23
2018-09-14T03:29:39.122Z,98825.75
2018-09-14T03:32:08.259Z,98826.77
2018-09-14T03:34:36.729Z,98823.41
2018-09-14T03:37:05.315Z,98820.88
2018-09-14T03:39:33.789Z,98818.98
2018-09-14T03:42:02.297Z,98816.29
2018-09-14T03:44:30.729Z,98821.52
2018-09-14T03:46:59.206Z,98817.82
2018-09-14T03:49:27.786Z,98815.93
2018-09-14T03:51:56.461Z,98816.62
2018-09-14T03:54:24.968Z,98815.95
2018-09-14T03:56:53.474Z,98816.95
2018-09-14T03:59:22.122Z,98820.70
2018-09-14T04:01:50.628Z,98817.48
2018-09-14T04:04:19.133Z,98814.42
2018-09-14T04:06:47.654Z,98814.61
2018-09-14T04:09:16.169Z,98816.66
2018-09-14T04:11:44.642Z,98817.82
2018-09-14T04:14:13.289Z,98820.83
2018-09-14T04:16:41.757Z,98827.91
2018-09-14T04:19:10.351Z,98824.73
2018-09-14T04:21:38.782Z,98827.10
2018-09-14T04:24:07.296Z,98823.52
2018-09-14T04:26:35.730Z,98819.30
2018-09-14T04:29:04.298Z,98829.77
2018-09-14T04:31:32.797Z,98829.11
2018-09-14T04:34:01.319Z,98832.80
2018-09-14T04:36:29.761Z,98840.61
2018-09-14T04:38:58.612Z,98835.51
2018-09-14T04:41:27.018Z,98836.20
2018-09-14T04:43:56.584Z,98830.80
2018-09-14T04:46:25.042Z,98840.25
2018-09-14T04:48:53.478Z,98840.25
2018-09-14T04:51:22.405Z,98848.00
2018-09-14T04:53:50.849Z,98843.25
2018-09-14T04:56:19.411Z,98843.28
2018-09-14T04:58:47.847Z,98840.91
2018-09-14T05:01:16.334Z,98842.26
2018-09-14T05:03:44.842Z,98844.30
2018-09-14T05:06:13.290Z,98845.14
2018-09-14T05:08:41.750Z,98848.00
2018-09-14T05:11:10.341Z,98850.04
2018-09-14T05:13:38.825Z,98850.37
2018-09-14T05:16:07.361Z,98857.81
2018-09-14T05:18:35.885Z,98856.46
2018-09-14T05:21:04.847Z,98861.69
2018-09-14T05:23:33.276Z,98863.04
2018-09-14T05:26:01.799Z,98857.64
2018-09-14T05:28:30.301Z,98864.94
2018-09-14T05:30:58.733Z,98868.11
2018-09-14T05:33:27.198Z,98869.31
2018-09-14T05:35:55.858Z,98872.35
2018-09-14T05:38:24.513Z,98871.84
2018-09-14T05:40:52.987Z,98868.30
2018-09-14T05:43:21.605Z,98869.98
2018-09-14T05:45:50.277Z,98871.98
2018-09-14T05:48:18.590Z,98875.70
2018-09-14T05:50:47.117Z,98878.05
2018-09-14T05:53:15.569Z,98884.51
2018-09-14T05:55:44.078Z,98882.83
2018-09-14T05:58:12.517Z,98889.59
2018-09-14T06:00:41.097Z,98883.85
2018-09-14T06:03:09.581Z,98887.58
2018-09-14T06:05:38.064Z,98893.67
2018-09-14T06:08:06.706Z,98896.74
2018-09-14T06:10:35.198Z,98898.78
2018-09-14T06:13:03.662Z,98894.22
2018-09-14T06:15:32.090Z,98900.83
2018-09-14T06:18:00.715Z,98902.00
2018-09-14T06:20:29.158Z,98899.98
2018-09-14T06:22:58.074Z,98899.52
2018-09-14T06:25:26.863Z,98903.23
2018-09-14T06:27:55.577Z,98900.56
2018-09-14T06:30:24.167Z,98897.38
2018-09-14T06:32:52.679Z,98901.00
2018-09-14T06:35:21.361Z,98890.55
2018-09-14T06:37:49.893Z,98892.61
2018-09-14T06:40:18.426Z,98888.59
2018-09-14T06:42:47.013Z,98891.30
2018-09-14T06:45:15.574Z,98889.09
2018-09-14T06:47:44.111Z,98887.93
2018-09-14T06:50:12.562Z,98893.50
2018-09-14T06:52:41.122Z,98897.75
2018-09-14T06:55:09.543Z,98887.92
2018-09-14T06:57:38.044Z,98889.66
2018-09-14T07:00:06.597Z,98889.63
2018-09-14T07:02:35.167Z,98887.59
2018-09-14T07:05:03.683Z,98886.89
2018-09-14T07:07:32.386Z,98891.95
2018-09-14T07:10:01.053Z,98891.12
2018-09-14T07:12:29.545Z,98897.56
2018-09-14T07:14:58.276Z,98904.86
2018-09-14T07:17:26.698Z,98904.02
2018-09-14T07:19:55.370Z,98902.19
2018-09-14T07:22:24.161Z,98898.81
2018-09-14T07:24:52.857Z,98900.79
2018-09-14T07:27:21.283Z,98905.02
2018-09-14T07:29:49.788Z,98910.28
2018-09-14T07:32:18.216Z,98914.36
2018-09-14T07:34:46.731Z,98916.02
2018-09-14T07:37:15.228Z,98917.75
2018-09-14T07:39:43.798Z,98922.62
2018-09-14T07:42:12.234Z,98927.02
2018-09-14T07:44:40.721Z,98927.53
2018-09-14T07:47:09.214Z,98925.33
2018-09-14T07:49:37.696Z,98934.13
2018-09-14T07:52:07.261Z,98933.94
2018-09-14T07:54:35.822Z,98943.06
2018-09-14T07:57:04.342Z,98950.19
2018-09-14T07:59:32.838Z,98946.63
2018-09-14T08:02:01.557Z,98947.48
2018-09-14T08:04:30.014Z,98952.20
2018-09-14T08:06:58.906Z,98949.35
2018-09-14T08:09:27.386Z,98953.06
2018-09-14T08:11:56.061Z,98957.66
2018-09-14T08:14:24.545Z,98962.05
2018-09-14T08:16:53.017Z,98963.42
2018-09-14T08:19:21.609Z,98965.77
2018-09-14T08:21:50.290Z,98969.16
2018-09-14T08:24:18.590Z,98967.12
2018-09-14T08:26:47.097Z,98968.64
2018-09-14T08:29:15.558Z,98972.20
2018-09-14T08:31:44.010Z,98972.90
2018-09-14T08:34:12.506Z,98978.17
2018-09-14T08:36:41.060Z,98979.06
2018-09-14T08:39:11.261Z,98979.34
2018-09-14T08:41:39.753Z,98978.59
2018-09-14T08:44:08.323Z,98976.27
2018-09-14T08:46:36.729Z,98989.63
2018-09-14T08:49:05.345Z,98986.15
2018-09-14T08:51:33.833Z,98987.02
2018-09-14T08:54:02.309Z,98983.64
2018-09-14T08:56:30.783Z,98990.66
2018-09-14T08:58:59.306Z,98982.66
2018-09-14T09:01:27.721Z,98986.51
2018-09-14T09:03:56.499Z,98983.98
2018-09-14T09:06:25.595Z,98996.47
2018-09-14T09:08:54.104Z,98990.42
2018-09-14T09:11:22.772Z,98991.92
2018-09-14T09:13:51.157Z,98996.22
2018-09-14T09:16:19.766Z,98998.12
2018-09-14T09:18:48.213Z,98997.23
2018-09-14T09:21:16.742Z,99002.70
2018-09-14T09:23:45.174Z,98993.73
2018-09-14T09:26:13.711Z,98991.05
2018-09-14T09:28:42.214Z,98998.28
2018-09-14T09:31:10.710Z,98997.61
2018-09-14T09:33:39.386Z,98997.67
2018-09-14T09:36:07.833Z,98985.90
2018-09-14T09:38:36.326Z,98997.59
2018-09-14T09:41:04.832Z,98995.33
2018-09-14T09:43:33.421Z,98996.78
2018-09-14T09:46:01.752Z,98994.93
2018-09-14T09:48:30.193Z,98993.45
2018-09-14T09:50:58.785Z,98988.02
2018-09-14T09:53:27.270Z,98985.87
2018-09-14T09:55:56.266Z,98984.34
2018-09-14T09:58:24.943Z,98987.13
2018-09-14T10:00:58.725Z,98984.89
2018-09-14T10:03:32.421Z,98990.19
2018-09-14T10:06:06.205Z,98987.49
2018-09-14T10:08:34.673Z,98987.72
2018-09-14T10:11:03.190Z,98986.27
2018-09-14T10:13:31.603Z,98989.13
2018-09-14T10:16:00.178Z,98983.78
2018-09-14T10:18:28.704Z,98980.17
2018-09-14T10:20:57.405Z,98979.84
2018-09-14T10:23:25.840Z,98981.20
2018-09-14T10:25:54.499Z,98984.80
2018-09-14T10:28:23.012Z,98981.55
2018-09-14T10:30:51.547Z,98978.75
2018-09-14T10:33:19.990Z,98978.53
2018-09-14T10:35:48.661Z,98974.34
2018-09-14T10:38:17.137Z,98969.77
2018-09-14T10:40:45.691Z,98967.73
2018-09-14T10:43:14.269Z,98968.39
2018-09-14T10:45:42.774Z,98962.81
2018-09-14T10:48:11.301Z,98953.98
2018-09-14T10:50:39.794Z,98957.52
2018-09-14T10:53:08.266Z,98954.70
2018-09-14T10:55:36.718Z,98948.98
2018-09-14T10:58:05.245Z,98941.79
2018-09-14T11:00:34.173Z,98940.34
2018-09-14T11:03:02.757Z,98939.39
2018-09-14T11:05:31.219Z,98930.87
2018-09-14T11:07:59.658Z,98932.69
2018-09-14T11:10:28.182Z,98931.98
2018-09-14T11:12:56.955Z,98931.48
2018-09-14T11:15:25.429Z,98930.73
2018-09-14T11:17:53.942Z,98928.31
2018-09-14T11:20:22.443Z,98926.64
2018-09-14T11:22:51.013Z,98927.00
2018-09-14T11:25:19.476Z,98922.73
2018-09-14T11:27:47.935Z,98928.05
2018-09-14T11:30:16.414Z,98922.69
2018-09-14T11:32:44.911Z,98925.39
2018-09-14T11:35:13.349Z,98917.47
2018-09-14T11:37:41.841Z,98913.06
2018-09-14T11:40:10.310Z,98911.94
2018-09-14T11:42:39.001Z,98920.05
2018-09-14T11:45:07.679Z,98907.27
2018-09-14T11:47:36.241Z,98903.13
2018-09-14T11:50:04.998Z,98896.92
2018-09-14T11:52:33.497Z,98902.20
2018-09-14T11:55:01.918Z,98902.94
2018-09-14T11:57:30.418Z,98891.53
2018-09-14T11:59:58.886Z,98897.17
2018-09-14T12:02:27.434Z,98893.57
2018-09-14T12:04:56.510Z,98895.64
2018-09-14T12:07:25.030Z,98904.20
2018-09-14T12:09:53.577Z,98904.12
2018-09-14T12:12:22.279Z,98906.20
2018-09-14T12:14:50.709Z,98902.84
2018-09-14T12:17:19.241Z,98897.41
2018-09-14T12:19:47.673Z,98900.22
2018-09-14T12:22:16.168Z,98889.98
2018-09-14T12:24:44.630Z,98889.30
2018-09-14T12:27:13.102Z,98889.52
2018-09-14T12:29:41.614Z,98883.39
2018-09-14T12:32:10.053Z,98890.05
2018-09-14T12:34:38.617Z,98889.16
2018-09-14T12:37:07.105Z,98886.47
2018-09-14T12:39:35.621Z,98887.61
2018-09-14T12:42:04.114Z,98877.81
2018-09-14T12:44:32.846Z,98875.59
2018-09-14T12:47:01.249Z,98876.94
2018-09-14T12:49:30.052Z,98872.41
2018-09-14T12:51:58.649Z,98883.36
2018-09-14T12:54:27.272Z,98873.17
2018-09-14T12:56:56.175Z,98864.73
2018-09-14T12:59:24.610Z,98870.46
2018-09-14T13:01:53.070Z,98861.78
2018-09-14T13:04:21.783Z,98871.33
2018-09-14T13:06:50.326Z,98861.59
2018-09-14T13:09:18.817Z,98854.23
2018-09-14T13:11:47.282Z,98849.72
2018-09-14T13:14:19.992Z,98854.80
2018-09-14T13:16:48.758Z,98856.75
2018-09-14T13:19:17.362Z,98855.27
2018-09-14T13:21:45.835Z,98850.41
2018-09-14T13:24:14.398Z,98847.10
2018-09-14T13:26:42.788Z,98838.62
2018-09-14T13:29:11.315Z,98842.91
2018-09-14T13:31:39.755Z,98831.72
2018-09-14T13:34:08.254Z,98837.19
2018-09-14T13:36:36.713Z,98834.85
2018-09-14T13:39:07.978Z,98826.06
2018-09-14T13:41:36.507Z,98824.27
2018-09-14T13:44:04.971Z,98828.09
2018-09-14T13:46:33.409Z,98821.19
2018-09-14T13:49:01.904Z,98816.83
2018-09-14T13:51:30.671Z,98817.56
2018-09-14T13:53:59.181Z,98818.48
2018-09-14T13:56:27.657Z,98813.42
2018-09-14T13:58:56.614Z,98820.04
2018-09-14T14:01:25.085Z,98814.36
2018-09-14T14:03:53.493Z,98816.20
2018-09-14T14:06:22.260Z,98822.47
2018-09-14T14:08:50.649Z,98815.56
2018-09-14T14:11:19.305Z,98815.65
2018-09-14T14:13:47.832Z,98809.52
2018-09-14T14:16:16.338Z,98811.27
2018-09-14T14:18:44.969Z,98810.06
2018-09-14T14:21:13.494Z,98805.63
2018-09-14T14:23:42.016Z,98808.22
2018-09-14T14:26:10.514Z,98801.91
2018-09-14T14:28:39.133Z,98803.18
2018-09-14T14:31:07.694Z,98801.49
2018-09-14T14:33:36.375Z,98802.11
2018-09-14T14:36:04.983Z,98797.75
2018-09-14T14:38:33.545Z,98801.13
2018-09-14T14:41:02.270Z,98804.00
2018-09-14T14:43:30.749Z,98804.42
2018-09-14T14:45:59.442Z,98806.77
2018-09-14T14:48:28.056Z,98796.45
2018-09-14T14:50:56.833Z,98804.34
2018-09-14T14:53:25.275Z,98805.00
2018-09-14T14:55:53.983Z,98800.41
2018-09-14T14:58:22.553Z,98797.10
2018-09-14T15:00:51.167Z,98799.13
2018-09-14T15:03:19.617Z,98795.08
2018-09-14T15:05:48.122Z,98791.68
2018-09-14T15:08:16.645Z,98791.44
2018-09-14T15:10:45.206Z,98788.35
2018-09-14T15:13:14.354Z,98797.64
2018-09-14T15:15:43.028Z,98789.23
2018-09-14T15:18:11.711Z,98802.53
2018-09-14T15:20:40.149Z,98802.03
2018-09-14T15:23:08.626Z,98796.05
2018-09-14T15:25:37.090Z,98800.27
2018-09-14T15:28:06.050Z,98802.84
2018-09-14T15:30:34.482Z,98796.13
2018-09-14T15:33:02.958Z,98797.90
2018-09-14T15:35:31.702Z,98803.54
2018-09-14T15:38:00.232Z,98812.78
2018-09-14T15:40:28.853Z,98801.06
2018-09-14T15:42:57.662Z,98806.02
2018-09-14T15:45:26.335Z,98806.67
2018-09-14T15:47:54.762Z,98803.77
2018-09-14T15:50:23.506Z,98803.42
2018-09-14T15:52:51.909Z,98806.29
2018-09-14T15:55:20.605Z,98811.85
2018-09-14T15:57:49.273Z,98806.69
2018-09-14T16:00:21.038Z,98802.31
2018-09-14T16:02:51.142Z,98804.09
2018-09-14T16:05:19.542Z,98801.25
2018-09-14T16:07:48.038Z,98801.98
2018-09-14T16:10:16.598Z,98809.02
2018-09-14T16:12:45.129Z,98808.78
2018-09-14T16:15:13.713Z,98812.55
2018-09-14T16:17:42.172Z,98815.52
2018-09-14T16:20:10.970Z,98813.50
2018-09-14T16:22:40.745Z,98809.95
2018-09-14T16:25:09.410Z,98807.92
2018-09-14T16:27:37.842Z,98803.92
2018-09-14T16:30:06.741Z,98808.56
2018-09-14T16:32:35.245Z,98809.05
2018-09-14T16:35:03.794Z,98806.73
2018-09-14T16:37:32.314Z,98810.16
2018-09-14T16:40:01.021Z,98817.13
2018-09-14T16:42:29.510Z,98810.24
2018-09-14T16:44:58.193Z,98814.99
2018-09-14T16:47:26.614Z,98809.59
2018-09-14T16:49:55.317Z,98816.36
2018-09-14T16:52:24.046Z,98813.38
2018-09-14T16:54:52.513Z,98816.95
2018-09-14T16:57:21.093Z,98815.16
2018-09-14T16:59:49.521Z,98818.96
2018-09-14T17:02:18.564Z,98822.31
2018-09-14T17:04:47.162Z,98820.52
2018-09-14T17:07:15.677Z,98827.96
2018-09-14T17:09:44.369Z,98832.69
2018-09-14T17:12:12.966Z,98826.95
2018-09-14T17:14:41.598Z,98825.86
2018-09-14T17:17:10.017Z,98822.06
2018-09-14T17:19:38.802Z,98828.59
2018-09-14T17:22:07.648Z,98829.14
2018-09-14T17:24:36.342Z,98839.51
2018-09-14T17:27:04.786Z,98850.98
2018-09-14T17:29:33.423Z,98849.83
2018-09-14T17:32:01.903Z,98852.06
2018-09-14T17:34:30.488Z,98852.63
2018-09-14T17:36:59.658Z,98852.05
2018-09-14T17:39:28.196Z,98857.76
2018-09-14T17:41:56.850Z,98856.95
2018-09-14T17:44:25.350Z,98857.02
2018-09-14T17:46:53.729Z,98855.02
2018-09-14T17:49:22.561Z,98852.92
2018-09-14T17:51:51.209Z,98857.98
2018-09-14T17:54:19.830Z,98859.04
2018-09-14T17:56:48.296Z,98859.92
2018-09-14T17:59:16.787Z,98864.86
2018-09-14T18:01:45.411Z,98863.42
2018-09-14T18:04:13.843Z,98863.85
2018-09-14T18:06:42.497Z,98865.45
2018-09-14T18:09:12.350Z,98868.59
2018-09-14T18:11:41.310Z,98871.00
2018-09-14T18:14:10.161Z,98878.68
2018-09-14T18:16:38.789Z,98877.56
2018-09-14T18:19:07.309Z,98881.32
2018-09-14T18:21:36.205Z,98887.40
2018-09-14T18:24:04.716Z,98888.12
2018-09-14T18:26:33.170Z,98889.38
2018-09-14T18:29:01.616Z,98905.48
2018-09-14T18:31:30.191Z,98905.32
2018-09-14T18:33:58.875Z,98911.95
2018-09-14T18:36:27.498Z,98916.53
2018-09-14T18:38:56.114Z,98919.08
2018-09-14T18:41:24.865Z,98924.87
2018-09-14T18:43:53.335Z,98924.84
2018-09-14T18:46:22.007Z,98931.78
2018-09-14T18:48:50.521Z,98938.05
2018-09-14T18:51:18.997Z,98939.40
2018-09-14T18:53:47.678Z,98942.30
2018-09-14T18:56:16.154Z,98946.00
2018-09-14T18:58:44.785Z,98940.95
2018-09-14T19:01:13.503Z,98944.00
2018-09-14T19:03:42.217Z,98958.89
2018-09-14T19:06:10.753Z,98949.43
2018-09-14T19:08:39.234Z,98960.77
2018-09-14T19:11:07.847Z,98960.42
2018-09-14T19:13:36.918Z,98961.78
2018-09-14T19:16:05.399Z,98964.80
2018-09-14T19:18:33.826Z,98966.12
2018-09-14T19:21:02.473Z,98961.70
2018-09-14T19:23:30.973Z,98970.00
2018-09-14T19:25:59.778Z,98970.68
2018-09-14T19:28:28.268Z,98980.30
2018-09-14T19:30:57.145Z,98980.28
2018-09-14T19:33:25.680Z,98983.30
2018-09-14T19:35:55.094Z,98987.69
2018-09-14T19:38:23.787Z,98990.89
2018-09-14T19:40:52.372Z,98985.27
2018-09-14T19:43:21.097Z,98988.94
2018-09-14T19:45:49.814Z,98986.23
2018-09-14T19:48:18.259Z,98983.38
2018-09-14T19:50:47.723Z,98983.86
2018-09-14T19:53:16.324Z,98980.91
2018-09-14T19:55:44.993Z,98981.20
2018-09-14T19:58:13.842Z,98982.98
2018-09-14T20:00:42.471Z,98980.03
2018-09-14T20:03:10.985Z,98977.28
2018-09-14T20:05:39.518Z,98983.48
2018-09-14T20:08:08.065Z,98980.58
2018-09-14T20:10:36.566Z,98984.73
2018-09-14T20:13:05.061Z,98985.75
2018-09-14T20:15:33.509Z,98983.33
2018-09-14T20:18:02.181Z,98984.30
2018-09-14T20:20:30.697Z,98983.83
2018-09-14T20:22:59.224Z,98987.32
2018-09-14T20:25:27.751Z,98994.06
2018-09-14T20:27:56.464Z,98999.41
2018-09-14T20:30:25.080Z,99000.43
2018-09-14T20:32:53.548Z,99000.05
2018-09-14T20:35:22.234Z,99006.80
2018-09-14T20:37:50.778Z,99005.41
2018-09-14T20:40:19.294Z,99005.45
2018-09-14T20:42:47.732Z,99005.91
2018-09-14T20:45:16.206Z,99007.58
2018-09-14T20:47:44.709Z,99014.44
2018-09-14T20:50:13.219Z,99009.03
2018-09-14T20:52:41.704Z,99012.31
2018-09-14T20:55:11.225Z,99013.97
2018-09-14T20:57:40.719Z,99012.03
2018-09-14T21:00:09.177Z,99008.58
2018-09-14T21:02:37.661Z,99011.09
2018-09-14T21:05:06.150Z,99012.55
2018-09-14T21:07:34.700Z,99011.00
2018-09-14T21:10:03.242Z,99010.36
2018-09-14T21:12:31.790Z,99012.35
2018-09-14T21:15:00.227Z,99014.47
2018-09-14T21:17:28.752Z,99011.45
2018-09-14T21:19:57.165Z,99012.09
2018-09-14T21:22:25.645Z,99020.05
2018-09-14T21:24:54.116Z,99018.31
2018-09-14T21:27:22.538Z,99023.99
2018-09-14T21:29:51.045Z,99022.30
2018-09-14T21:32:19.498Z,99024.50
2018-09-14T21:34:48.154Z,99027.59
2018-09-14T21:37:16.667Z,99029.53
2018-09-14T21:39:45.185Z,99035.20
2018-09-14T21:42:13.642Z,99034.63
2018-09-14T21:44:42.110Z,99036.12
2018-09-14T21:47:12.916Z,99035.83
2018-09-14T21:49:41.389Z,99034.84
2018-09-14T21:52:09.797Z,99039.49
2018-09-14T21:54:38.305Z,99039.98
2018-09-14T21:57:06.969Z,99041.24
2018-09-14T21:59:35.489Z,99042.92
2018-09-14T22:02:03.936Z,99043.75
2018-09-14T22:04:32.442Z,99042.31
2018-09-14T22:07:00.913Z,99041.73
2018-09-14T22:09:29.429Z,99040.44
2018-09-14T22:11:57.994Z,99042.03
2018-09-14T22:14:26.482Z,99044.40
2018-09-14T22:16:54.964Z,99052.38
2018-09-14T22:19:23.611Z,99051.01
2018-09-14T22:21:52.163Z,99052.97
2018-09-14T22:24:20.597Z,99061.27
2018-09-14T22:26:49.059Z,99064.74
2018-09-14T22:29:17.574Z,99064.30
2018-09-14T22:31:46.026Z,99069.75
2018-09-14T22:34:14.521Z,99071.90
2018-09-14T22:36:42.985Z,99073.19
2018-09-14T22:39:12.899Z,99073.25
2018-09-14T22:41:41.378Z,99072.73
2018-09-14T22:44:09.986Z,99078.59
2018-09-14T22:46:38.975Z,99075.38
2018-09-14T22:49:07.454Z,99084.18
2018-09-14T22:51:36.030Z,99083.20
2018-09-14T22:54:04.518Z,99087.25
2018-09-14T22:56:33.006Z,99087.58
2018-09-14T22:59:01.500Z,99087.27
2018-09-14T23:01:30.053Z,99098.80
2018-09-14T23:03:58.573Z,99094.09
2018-09-14T23:06:27.025Z,99100.70
2018-09-14T23:08:55.632Z,99105.27
2018-09-14T23:11:24.348Z,99107.29
2018-09-14T23:13:52.760Z,99108.69
2018-09-14T23:16:21.265Z,99113.39
2018-09-14T23:18:49.822Z,99116.94
2018-09-14T23:21:18.333Z,99123.89
2018-09-14T23:23:46.793Z,99113.45
2018-09-14T23:26:19.776Z,99123.41
2018-09-14T23:28:48.348Z,99120.20
2018-09-14T23:31:16.759Z,99114.15
2018-09-14T23:33:45.271Z,99118.87
2018-09-14T23:36:13.740Z,99120.39
2018-09-14T23:38:42.225Z,99115.11
2018-09-14T23:41:10.726Z,99124.11
2018-09-14T23:43:39.226Z,99122.30
2018-09-14T23:46:07.681Z,99122.76
2018-09-14T23:48:36.112Z,99127.45
2018-09-14T23:51:04.669Z,99129.94
2018-09-14T23:53:33.077Z,99124.44
2018-09-14T23:56:01.558Z,99130.99
2018-09-14T23:58:30.094Z,99132.34
